sensor_id;sensor_type;location;lat;lon;timestamp;P1;durP1;ratioP1;P2;durP2;ratioP2
75680;SDS011;64294;49.176;16.626;2023-01-10T00:00:32;6.88;;;4.00;;
75680;SDS011;64294;49.176;16.626;2023-01-10T00:03:01;6.03;;;3.50;;
75680;SDS011;64294;49.176;16.626;2023-01-10T00:05:28;6.40;;;3.50;;
75680;SDS011;64294;49.176;16.626;2023-01-10T00:07:53;6.28;;;3.42;;
75680;SDS011;64294;49.176;16.626;2023-01-10T00:10:19;7.60;;;3.80;;
75680;SDS011;64294;49.176;16.626;2023-01-10T00:12:45;6.82;;;3.70;;
75680;SDS011;64294;49.176;16.626;2023-01-10T00:15:30;8.60;;;4.00;;
75680;SDS011;64294;49.176;16.626;2023-01-10T00:17:57;7.13;;;3.67;;
75680;SDS011;64294;49.176;16.626;2023-01-10T00:20:22;8.77;;;3.75;;
75680;SDS011;64294;49.176;16.626;2023-01-10T00:22:48;7.85;;;3.65;;
75680;SDS011;64294;49.176;16.626;2023-01-10T00:25:15;9.88;;;4.75;;
75680;SDS011;64294;49.176;16.626;2023-01-10T00:27:43;9.27;;;3.80;;
75680;SDS011;64294;49.176;16.626;2023-01-10T00:30:10;8.25;;;3.80;;
75680;SDS011;64294;49.176;16.626;2023-01-10T00:32:42;5.00;;;3.05;;
75680;SDS011;64294;49.176;16.626;2023-01-10T00:35:09;7.38;;;3.88;;
75680;SDS011;64294;49.176;16.626;2023-01-10T00:37:35;7.43;;;3.65;;
75680;SDS011;64294;49.176;16.626;2023-01-10T00:40:01;6.25;;;3.10;;
75680;SDS011;64294;49.176;16.626;2023-01-10T00:42:27;7.15;;;3.38;;
75680;SDS011;64294;49.176;16.626;2023-01-10T00:45:11;7.88;;;3.80;;
75680;SDS011;64294;49.176;16.626;2023-01-10T00:47:36;7.00;;;3.53;;
75680;SDS011;64294;49.176;16.626;2023-01-10T00:50:02;6.53;;;3.40;;
75680;SDS011;64294;49.176;16.626;2023-01-10T00:52:32;6.10;;;3.30;;
75680;SDS011;64294;49.176;16.626;2023-01-10T00:54:58;8.15;;;3.25;;
75680;SDS011;64294;49.176;16.626;2023-01-10T00:57:24;7.15;;;3.50;;
75680;SDS011;64294;49.176;16.626;2023-01-10T00:59:49;6.80;;;2.97;;
75680;SDS011;64294;49.176;16.626;2023-01-10T01:02:14;5.80;;;3.05;;
75680;SDS011;64294;49.176;16.626;2023-01-10T01:04:40;8.02;;;3.20;;
75680;SDS011;64294;49.176;16.626;2023-01-10T01:07:05;10.88;;;3.55;;
75680;SDS011;64294;49.176;16.626;2023-01-10T01:09:31;5.72;;;2.80;;
75680;SDS011;64294;49.176;16.626;2023-01-10T01:11:56;6.57;;;3.25;;
75680;SDS011;64294;49.176;16.626;2023-01-10T01:14:22;5.38;;;2.88;;
75680;SDS011;64294;49.176;16.626;2023-01-10T01:16:48;8.95;;;3.05;;
75680;SDS011;64294;49.176;16.626;2023-01-10T01:19:14;4.72;;;2.72;;
75680;SDS011;64294;49.176;16.626;2023-01-10T01:21:39;6.28;;;2.88;;
75680;SDS011;64294;49.176;16.626;2023-01-10T01:24:05;5.53;;;2.60;;
75680;SDS011;64294;49.176;16.626;2023-01-10T01:26:31;6.35;;;2.85;;
75680;SDS011;64294;49.176;16.626;2023-01-10T01:28:56;5.75;;;3.13;;
75680;SDS011;64294;49.176;16.626;2023-01-10T01:31:21;7.68;;;2.83;;
75680;SDS011;64294;49.176;16.626;2023-01-10T01:33:47;7.15;;;2.85;;
75680;SDS011;64294;49.176;16.626;2023-01-10T01:36:12;5.15;;;2.65;;
75680;SDS011;64294;49.176;16.626;2023-01-10T01:38:38;7.25;;;2.72;;
75680;SDS011;64294;49.176;16.626;2023-01-10T01:41:07;6.35;;;3.00;;
75680;SDS011;64294;49.176;16.626;2023-01-10T01:46:25;8.50;;;2.53;;
75680;SDS011;64294;49.176;16.626;2023-01-10T01:48:51;4.13;;;2.45;;
75680;SDS011;64294;49.176;16.626;2023-01-10T01:51:17;5.18;;;2.60;;
75680;SDS011;64294;49.176;16.626;2023-01-10T01:53:51;6.97;;;2.63;;
75680;SDS011;64294;49.176;16.626;2023-01-10T01:59:01;9.93;;;2.67;;
75680;SDS011;64294;49.176;16.626;2023-01-10T02:01:35;5.13;;;2.40;;
75680;SDS011;64294;49.176;16.626;2023-01-10T02:04:09;6.95;;;2.92;;
75680;SDS011;64294;49.176;16.626;2023-01-10T02:09:10;4.07;;;2.22;;
75680;SDS011;64294;49.176;16.626;2023-01-10T02:11:43;5.45;;;2.55;;
75680;SDS011;64294;49.176;16.626;2023-01-10T02:14:09;7.45;;;2.65;;
75680;SDS011;64294;49.176;16.626;2023-01-10T02:16:36;5.75;;;2.60;;
75680;SDS011;64294;49.176;16.626;2023-01-10T02:19:02;5.07;;;2.38;;
75680;SDS011;64294;49.176;16.626;2023-01-10T02:21:35;5.45;;;2.55;;
75680;SDS011;64294;49.176;16.626;2023-01-10T02:30:21;5.35;;;2.60;;
75680;SDS011;64294;49.176;16.626;2023-01-10T02:43:49;3.65;;;2.10;;
75680;SDS011;64294;49.176;16.626;2023-01-10T02:46:21;5.00;;;2.35;;
75680;SDS011;64294;49.176;16.626;2023-01-10T02:48:52;6.10;;;2.63;;
75680;SDS011;64294;49.176;16.626;2023-01-10T02:51:20;5.95;;;2.53;;
75680;SDS011;64294;49.176;16.626;2023-01-10T02:53:52;6.25;;;2.38;;
75680;SDS011;64294;49.176;16.626;2023-01-10T02:59:03;4.85;;;2.45;;
75680;SDS011;64294;49.176;16.626;2023-01-10T03:09:23;4.47;;;2.10;;
75680;SDS011;64294;49.176;16.626;2023-01-10T03:11:54;3.97;;;2.25;;
75680;SDS011;64294;49.176;16.626;2023-01-10T03:14:24;4.35;;;2.40;;
75680;SDS011;64294;49.176;16.626;2023-01-10T03:17:01;3.50;;;2.50;;
75680;SDS011;64294;49.176;16.626;2023-01-10T03:19:31;5.20;;;2.40;;
75680;SDS011;64294;49.176;16.626;2023-01-10T03:22:02;3.85;;;2.40;;
75680;SDS011;64294;49.176;16.626;2023-01-10T03:24:32;4.30;;;2.40;;
75680;SDS011;64294;49.176;16.626;2023-01-10T03:27:02;6.00;;;2.40;;
75680;SDS011;64294;49.176;16.626;2023-01-10T03:32:47;4.88;;;2.47;;
75680;SDS011;64294;49.176;16.626;2023-01-10T03:35:13;3.20;;;2.10;;
75680;SDS011;64294;49.176;16.626;2023-01-10T03:45:27;5.35;;;2.50;;
75680;SDS011;64294;49.176;16.626;2023-01-10T03:47:57;5.50;;;2.80;;
75680;SDS011;64294;49.176;16.626;2023-01-10T03:50:28;4.32;;;2.40;;
75680;SDS011;64294;49.176;16.626;2023-01-10T03:52:54;4.07;;;2.40;;
75680;SDS011;64294;49.176;16.626;2023-01-10T03:55:22;3.85;;;2.40;;
75680;SDS011;64294;49.176;16.626;2023-01-10T03:57:50;4.18;;;2.50;;
75680;SDS011;64294;49.176;16.626;2023-01-10T04:00:16;5.07;;;2.85;;
75680;SDS011;64294;49.176;16.626;2023-01-10T04:02:42;5.80;;;2.70;;
75680;SDS011;64294;49.176;16.626;2023-01-10T04:05:08;3.95;;;2.58;;
75680;SDS011;64294;49.176;16.626;2023-01-10T04:07:34;4.68;;;2.78;;
75680;SDS011;64294;49.176;16.626;2023-01-10T04:09:59;5.80;;;3.00;;
75680;SDS011;64294;49.176;16.626;2023-01-10T04:12:25;4.80;;;2.97;;
75680;SDS011;64294;49.176;16.626;2023-01-10T04:14:51;5.22;;;2.83;;
75680;SDS011;64294;49.176;16.626;2023-01-10T04:17:17;4.93;;;2.80;;
75680;SDS011;64294;49.176;16.626;2023-01-10T04:19:43;5.13;;;3.00;;
75680;SDS011;64294;49.176;16.626;2023-01-10T04:22:09;4.32;;;3.05;;
75680;SDS011;64294;49.176;16.626;2023-01-10T04:24:35;6.10;;;3.40;;
75680;SDS011;64294;49.176;16.626;2023-01-10T04:27:00;6.40;;;3.30;;
75680;SDS011;64294;49.176;16.626;2023-01-10T04:29:26;5.72;;;3.05;;
75680;SDS011;64294;49.176;16.626;2023-01-10T04:31:51;5.43;;;3.30;;
75680;SDS011;64294;49.176;16.626;2023-01-10T04:34:18;6.68;;;3.60;;
75680;SDS011;64294;49.176;16.626;2023-01-10T04:36:47;6.13;;;3.60;;
75680;SDS011;64294;49.176;16.626;2023-01-10T04:39:13;6.72;;;3.20;;
75680;SDS011;64294;49.176;16.626;2023-01-10T04:41:39;5.45;;;3.30;;
75680;SDS011;64294;49.176;16.626;2023-01-10T04:44:05;5.38;;;3.30;;
75680;SDS011;64294;49.176;16.626;2023-01-10T04:46:30;6.80;;;3.70;;
75680;SDS011;64294;49.176;16.626;2023-01-10T04:48:56;7.03;;;3.60;;
75680;SDS011;64294;49.176;16.626;2023-01-10T04:51:23;7.18;;;3.70;;
75680;SDS011;64294;49.176;16.626;2023-01-10T04:53:49;5.80;;;3.75;;
75680;SDS011;64294;49.176;16.626;2023-01-10T04:56:15;6.28;;;4.15;;
75680;SDS011;64294;49.176;16.626;2023-01-10T04:58:42;7.10;;;4.13;;
75680;SDS011;64294;49.176;16.626;2023-01-10T05:01:15;7.50;;;4.25;;
75680;SDS011;64294;49.176;16.626;2023-01-10T05:03:42;8.98;;;5.13;;
75680;SDS011;64294;49.176;16.626;2023-01-10T05:06:08;9.40;;;5.10;;
75680;SDS011;64294;49.176;16.626;2023-01-10T05:08:34;8.75;;;4.78;;
75680;SDS011;64294;49.176;16.626;2023-01-10T05:10:59;9.27;;;4.47;;
75680;SDS011;64294;49.176;16.626;2023-01-10T05:13:25;8.02;;;4.18;;
75680;SDS011;64294;49.176;16.626;2023-01-10T05:15:54;9.02;;;4.22;;
75680;SDS011;64294;49.176;16.626;2023-01-10T05:18:21;7.70;;;4.22;;
75680;SDS011;64294;49.176;16.626;2023-01-10T05:20:47;7.70;;;3.80;;
75680;SDS011;64294;49.176;16.626;2023-01-10T05:23:13;7.13;;;3.90;;
75680;SDS011;64294;49.176;16.626;2023-01-10T05:25:38;5.78;;;3.67;;
75680;SDS011;64294;49.176;16.626;2023-01-10T05:28:03;6.18;;;3.60;;
75680;SDS011;64294;49.176;16.626;2023-01-10T05:30:29;7.93;;;4.43;;
75680;SDS011;64294;49.176;16.626;2023-01-10T05:32:54;6.82;;;3.70;;
75680;SDS011;64294;49.176;16.626;2023-01-10T05:35:20;7.65;;;4.40;;
75680;SDS011;64294;49.176;16.626;2023-01-10T05:37:45;8.02;;;3.75;;
75680;SDS011;64294;49.176;16.626;2023-01-10T05:40:10;8.85;;;4.18;;
75680;SDS011;64294;49.176;16.626;2023-01-10T05:42:36;7.40;;;3.78;;
75680;SDS011;64294;49.176;16.626;2023-01-10T05:45:02;8.43;;;3.80;;
75680;SDS011;64294;49.176;16.626;2023-01-10T05:47:28;7.15;;;3.95;;
75680;SDS011;64294;49.176;16.626;2023-01-10T05:49:54;6.50;;;4.07;;
75680;SDS011;64294;49.176;16.626;2023-01-10T05:52:19;7.07;;;4.10;;
75680;SDS011;64294;49.176;16.626;2023-01-10T05:54:45;7.40;;;3.80;;
75680;SDS011;64294;49.176;16.626;2023-01-10T05:57:10;7.00;;;3.70;;
75680;SDS011;64294;49.176;16.626;2023-01-10T05:59:35;6.65;;;4.18;;
75680;SDS011;64294;49.176;16.626;2023-01-10T06:02:01;7.05;;;4.05;;
75680;SDS011;64294;49.176;16.626;2023-01-10T06:04:26;6.35;;;3.90;;
75680;SDS011;64294;49.176;16.626;2023-01-10T06:06:52;8.25;;;4.30;;
75680;SDS011;64294;49.176;16.626;2023-01-10T06:09:17;8.18;;;4.10;;
75680;SDS011;64294;49.176;16.626;2023-01-10T06:11:42;7.63;;;4.05;;
75680;SDS011;64294;49.176;16.626;2023-01-10T06:14:08;8.85;;;4.60;;
75680;SDS011;64294;49.176;16.626;2023-01-10T06:16:34;6.63;;;3.80;;
75680;SDS011;64294;49.176;16.626;2023-01-10T06:18:59;6.93;;;3.83;;
75680;SDS011;64294;49.176;16.626;2023-01-10T06:21:25;10.30;;;4.40;;
75680;SDS011;64294;49.176;16.626;2023-01-10T06:23:50;5.88;;;3.80;;
75680;SDS011;64294;49.176;16.626;2023-01-10T06:26:16;6.32;;;3.90;;
75680;SDS011;64294;49.176;16.626;2023-01-10T06:28:42;7.03;;;4.10;;
75680;SDS011;64294;49.176;16.626;2023-01-10T06:31:08;7.28;;;3.70;;
75680;SDS011;64294;49.176;16.626;2023-01-10T06:33:34;6.35;;;3.40;;
75680;SDS011;64294;49.176;16.626;2023-01-10T06:36:00;5.60;;;3.92;;
75680;SDS011;64294;49.176;16.626;2023-01-10T06:38:25;6.13;;;3.30;;
75680;SDS011;64294;49.176;16.626;2023-01-10T06:40:51;7.18;;;3.70;;
75680;SDS011;64294;49.176;16.626;2023-01-10T06:43:16;6.82;;;3.40;;
75680;SDS011;64294;49.176;16.626;2023-01-10T06:45:41;6.80;;;3.45;;
75680;SDS011;64294;49.176;16.626;2023-01-10T06:48:07;5.15;;;3.30;;
75680;SDS011;64294;49.176;16.626;2023-01-10T06:50:32;6.38;;;3.42;;
75680;SDS011;64294;49.176;16.626;2023-01-10T06:52:59;7.80;;;3.67;;
75680;SDS011;64294;49.176;16.626;2023-01-10T06:55:25;6.82;;;3.78;;
75680;SDS011;64294;49.176;16.626;2023-01-10T06:57:55;8.23;;;4.20;;
75680;SDS011;64294;49.176;16.626;2023-01-10T07:00:21;7.65;;;4.57;;
75680;SDS011;64294;49.176;16.626;2023-01-10T07:02:47;6.78;;;4.30;;
75680;SDS011;64294;49.176;16.626;2023-01-10T07:05:12;6.53;;;3.80;;
75680;SDS011;64294;49.176;16.626;2023-01-10T07:07:38;7.18;;;4.10;;
75680;SDS011;64294;49.176;16.626;2023-01-10T07:10:03;6.60;;;3.78;;
75680;SDS011;64294;49.176;16.626;2023-01-10T07:12:29;9.80;;;3.47;;
75680;SDS011;64294;49.176;16.626;2023-01-10T07:14:55;5.90;;;3.67;;
75680;SDS011;64294;49.176;16.626;2023-01-10T07:17:20;6.70;;;3.35;;
75680;SDS011;64294;49.176;16.626;2023-01-10T07:19:45;7.28;;;3.53;;
75680;SDS011;64294;49.176;16.626;2023-01-10T07:22:11;6.70;;;3.90;;
75680;SDS011;64294;49.176;16.626;2023-01-10T07:24:36;5.97;;;3.65;;
75680;SDS011;64294;49.176;16.626;2023-01-10T07:27:01;8.10;;;4.13;;
75680;SDS011;64294;49.176;16.626;2023-01-10T07:29:27;7.68;;;3.90;;
75680;SDS011;64294;49.176;16.626;2023-01-10T07:31:52;8.70;;;3.83;;
75680;SDS011;64294;49.176;16.626;2023-01-10T07:34:18;9.98;;;4.22;;
75680;SDS011;64294;49.176;16.626;2023-01-10T07:36:43;8.25;;;4.07;;
75680;SDS011;64294;49.176;16.626;2023-01-10T07:39:09;8.05;;;4.38;;
75680;SDS011;64294;49.176;16.626;2023-01-10T07:41:34;9.60;;;4.57;;
75680;SDS011;64294;49.176;16.626;2023-01-10T07:43:59;9.70;;;4.18;;
75680;SDS011;64294;49.176;16.626;2023-01-10T07:46:25;7.88;;;3.95;;
75680;SDS011;64294;49.176;16.626;2023-01-10T07:48:50;7.55;;;4.13;;
75680;SDS011;64294;49.176;16.626;2023-01-10T07:51:16;7.40;;;4.00;;
75680;SDS011;64294;49.176;16.626;2023-01-10T07:53:41;7.18;;;3.75;;
75680;SDS011;64294;49.176;16.626;2023-01-10T07:56:07;10.38;;;4.03;;
75680;SDS011;64294;49.176;16.626;2023-01-10T07:58:32;9.35;;;4.60;;
75680;SDS011;64294;49.176;16.626;2023-01-10T08:00:59;11.95;;;4.22;;
75680;SDS011;64294;49.176;16.626;2023-01-10T08:03:25;9.40;;;3.88;;
75680;SDS011;64294;49.176;16.626;2023-01-10T08:06:00;5.57;;;3.47;;
75680;SDS011;64294;49.176;16.626;2023-01-10T08:08:30;8.05;;;3.80;;
75680;SDS011;64294;49.176;16.626;2023-01-10T08:10:56;5.40;;;3.40;;
75680;SDS011;64294;49.176;16.626;2023-01-10T08:13:23;6.20;;;3.55;;
75680;SDS011;64294;49.176;16.626;2023-01-10T08:15:49;8.05;;;3.65;;
75680;SDS011;64294;49.176;16.626;2023-01-10T08:18:15;10.18;;;4.55;;
75680;SDS011;64294;49.176;16.626;2023-01-10T08:20:41;9.07;;;3.70;;
75680;SDS011;64294;49.176;16.626;2023-01-10T08:23:06;7.15;;;3.50;;
75680;SDS011;64294;49.176;16.626;2023-01-10T08:25:32;6.78;;;3.67;;
75680;SDS011;64294;49.176;16.626;2023-01-10T08:27:57;6.28;;;3.55;;
75680;SDS011;64294;49.176;16.626;2023-01-10T08:30:23;9.07;;;3.53;;
75680;SDS011;64294;49.176;16.626;2023-01-10T08:32:48;7.18;;;3.28;;
75680;SDS011;64294;49.176;16.626;2023-01-10T08:35:15;6.13;;;3.28;;
75680;SDS011;64294;49.176;16.626;2023-01-10T08:37:40;5.20;;;3.08;;
75680;SDS011;64294;49.176;16.626;2023-01-10T08:40:06;8.52;;;3.10;;
75680;SDS011;64294;49.176;16.626;2023-01-10T08:42:32;6.32;;;3.00;;
75680;SDS011;64294;49.176;16.626;2023-01-10T08:44:58;6.13;;;3.42;;
75680;SDS011;64294;49.176;16.626;2023-01-10T08:47:24;6.88;;;3.40;;
75680;SDS011;64294;49.176;16.626;2023-01-10T08:49:50;7.07;;;3.05;;
75680;SDS011;64294;49.176;16.626;2023-01-10T08:52:15;7.20;;;2.95;;
75680;SDS011;64294;49.176;16.626;2023-01-10T08:54:41;6.72;;;3.10;;
75680;SDS011;64294;49.176;16.626;2023-01-10T08:57:07;6.35;;;3.10;;
75680;SDS011;64294;49.176;16.626;2023-01-10T08:59:32;5.47;;;3.10;;
75680;SDS011;64294;49.176;16.626;2023-01-10T09:01:58;4.68;;;2.80;;
75680;SDS011;64294;49.176;16.626;2023-01-10T09:04:24;4.97;;;3.08;;
75680;SDS011;64294;49.176;16.626;2023-01-10T09:06:52;6.47;;;3.25;;
75680;SDS011;64294;49.176;16.626;2023-01-10T09:09:18;6.15;;;3.00;;
75680;SDS011;64294;49.176;16.626;2023-01-10T09:11:43;6.68;;;2.75;;
75680;SDS011;64294;49.176;16.626;2023-01-10T09:14:09;6.70;;;2.80;;
75680;SDS011;64294;49.176;16.626;2023-01-10T09:16:34;6.30;;;3.35;;
75680;SDS011;64294;49.176;16.626;2023-01-10T09:19:00;4.43;;;2.78;;
75680;SDS011;64294;49.176;16.626;2023-01-10T09:21:26;9.88;;;3.60;;
75680;SDS011;64294;49.176;16.626;2023-01-10T09:23:52;6.43;;;2.67;;
75680;SDS011;64294;49.176;16.626;2023-01-10T09:26:18;4.20;;;2.85;;
75680;SDS011;64294;49.176;16.626;2023-01-10T09:28:43;6.82;;;3.03;;
75680;SDS011;64294;49.176;16.626;2023-01-10T09:31:09;6.25;;;3.10;;
75680;SDS011;64294;49.176;16.626;2023-01-10T09:33:35;8.55;;;3.05;;
75680;SDS011;64294;49.176;16.626;2023-01-10T09:36:01;8.30;;;3.20;;
75680;SDS011;64294;49.176;16.626;2023-01-10T09:38:26;6.85;;;3.70;;
75680;SDS011;64294;49.176;16.626;2023-01-10T09:46:36;4.07;;;2.50;;
75680;SDS011;64294;49.176;16.626;2023-01-10T09:52:03;5.45;;;2.78;;
75680;SDS011;64294;49.176;16.626;2023-01-10T09:54:36;8.05;;;2.80;;
75680;SDS011;64294;49.176;16.626;2023-01-10T09:57:07;6.75;;;2.85;;
75680;SDS011;64294;49.176;16.626;2023-01-10T09:59:39;4.10;;;2.57;;
75680;SDS011;64294;49.176;16.626;2023-01-10T10:04:45;9.55;;;3.20;;
75680;SDS011;64294;49.176;16.626;2023-01-10T10:07:23;6.07;;;2.88;;
75680;SDS011;64294;49.176;16.626;2023-01-10T10:09:48;6.15;;;2.58;;
75680;SDS011;64294;49.176;16.626;2023-01-10T10:12:22;6.85;;;2.55;;
75680;SDS011;64294;49.176;16.626;2023-01-10T10:17:40;7.72;;;3.20;;
75680;SDS011;64294;49.176;16.626;2023-01-10T10:23:10;9.90;;;2.78;;
75680;SDS011;64294;49.176;16.626;2023-01-10T10:37:02;7.45;;;2.38;;
75680;SDS011;64294;49.176;16.626;2023-01-10T10:39:50;8.13;;;3.08;;
75680;SDS011;64294;49.176;16.626;2023-01-10T10:42:20;6.20;;;2.63;;
75680;SDS011;64294;49.176;16.626;2023-01-10T10:44:52;6.88;;;2.60;;
75680;SDS011;64294;49.176;16.626;2023-01-10T10:47:23;4.13;;;2.13;;
75680;SDS011;64294;49.176;16.626;2023-01-10T10:52:49;3.97;;;2.30;;
75680;SDS011;64294;49.176;16.626;2023-01-10T10:55:15;6.22;;;2.25;;
75680;SDS011;64294;49.176;16.626;2023-01-10T10:57:43;4.53;;;2.20;;
75680;SDS011;64294;49.176;16.626;2023-01-10T11:00:25;6.57;;;2.75;;
75680;SDS011;64294;49.176;16.626;2023-01-10T11:05:50;6.60;;;2.50;;
75680;SDS011;64294;49.176;16.626;2023-01-10T11:08:16;5.45;;;2.30;;
75680;SDS011;64294;49.176;16.626;2023-01-10T11:10:46;5.45;;;2.33;;
75680;SDS011;64294;49.176;16.626;2023-01-10T11:13:22;5.65;;;2.10;;
75680;SDS011;64294;49.176;16.626;2023-01-10T11:15:54;7.72;;;2.17;;
75680;SDS011;64294;49.176;16.626;2023-01-10T11:18:21;4.13;;;2.50;;
75680;SDS011;64294;49.176;16.626;2023-01-10T11:31:52;7.03;;;2.20;;
75680;SDS011;64294;49.176;16.626;2023-01-10T11:34:27;7.97;;;2.47;;
75680;SDS011;64294;49.176;16.626;2023-01-10T11:39:21;7.78;;;2.88;;
75680;SDS011;64294;49.176;16.626;2023-01-10T11:41:47;5.72;;;1.80;;
75680;SDS011;64294;49.176;16.626;2023-01-10T11:44:21;7.68;;;3.30;;
75680;SDS011;64294;49.176;16.626;2023-01-10T11:46:53;6.38;;;2.58;;
75680;SDS011;64294;49.176;16.626;2023-01-10T11:49:31;5.07;;;2.40;;
75680;SDS011;64294;49.176;16.626;2023-01-10T11:52:12;4.53;;;1.92;;
75680;SDS011;64294;49.176;16.626;2023-01-10T11:54:44;5.68;;;2.35;;
75680;SDS011;64294;49.176;16.626;2023-01-10T11:59:38;7.15;;;2.55;;
75680;SDS011;64294;49.176;16.626;2023-01-10T12:02:12;7.20;;;2.47;;
75680;SDS011;64294;49.176;16.626;2023-01-10T12:04:47;22.58;;;9.40;;
75680;SDS011;64294;49.176;16.626;2023-01-10T12:07:15;4.95;;;2.10;;
75680;SDS011;64294;49.176;16.626;2023-01-10T12:10:04;7.53;;;2.20;;
75680;SDS011;64294;49.176;16.626;2023-01-10T12:12:31;5.78;;;2.00;;
75680;SDS011;64294;49.176;16.626;2023-01-10T12:14:58;7.25;;;2.15;;
75680;SDS011;64294;49.176;16.626;2023-01-10T12:17:44;3.67;;;1.67;;
75680;SDS011;64294;49.176;16.626;2023-01-10T12:20:11;6.20;;;1.80;;
75680;SDS011;64294;49.176;16.626;2023-01-10T12:22:40;3.38;;;1.80;;
75680;SDS011;64294;49.176;16.626;2023-01-10T12:25:19;4.50;;;1.80;;
75680;SDS011;64294;49.176;16.626;2023-01-10T12:27:47;6.47;;;2.05;;
75680;SDS011;64294;49.176;16.626;2023-01-10T12:32:41;4.65;;;2.15;;
75680;SDS011;64294;49.176;16.626;2023-01-10T12:35:22;7.13;;;1.98;;
75680;SDS011;64294;49.176;16.626;2023-01-10T12:37:54;5.22;;;1.73;;
75680;SDS011;64294;49.176;16.626;2023-01-10T12:40:40;9.20;;;2.05;;
75680;SDS011;64294;49.176;16.626;2023-01-10T12:43:14;4.78;;;1.60;;
75680;SDS011;64294;49.176;16.626;2023-01-10T12:46:08;4.97;;;1.92;;
75680;SDS011;64294;49.176;16.626;2023-01-10T12:48:46;3.90;;;1.85;;
75680;SDS011;64294;49.176;16.626;2023-01-10T12:51:20;6.20;;;2.03;;
75680;SDS011;64294;49.176;16.626;2023-01-10T12:53:57;6.50;;;1.83;;
75680;SDS011;64294;49.176;16.626;2023-01-10T12:56:28;5.88;;;1.90;;
75680;SDS011;64294;49.176;16.626;2023-01-10T12:58:55;4.68;;;1.70;;
75680;SDS011;64294;49.176;16.626;2023-01-10T13:01:27;5.50;;;1.98;;
75680;SDS011;64294;49.176;16.626;2023-01-10T13:03:56;7.90;;;2.10;;
75680;SDS011;64294;49.176;16.626;2023-01-10T13:06:34;3.83;;;1.73;;
75680;SDS011;64294;49.176;16.626;2023-01-10T13:09:04;5.43;;;1.90;;
75680;SDS011;64294;49.176;16.626;2023-01-10T13:11:35;4.93;;;1.70;;
75680;SDS011;64294;49.176;16.626;2023-01-10T13:21:39;3.05;;;2.03;;
75680;SDS011;64294;49.176;16.626;2023-01-10T13:24:15;6.00;;;2.00;;
75680;SDS011;64294;49.176;16.626;2023-01-10T13:26:56;5.20;;;2.20;;
75680;SDS011;64294;49.176;16.626;2023-01-10T13:29:28;8.40;;;2.70;;
75680;SDS011;64294;49.176;16.626;2023-01-10T13:31:55;5.40;;;2.30;;
75680;SDS011;64294;49.176;16.626;2023-01-10T13:34:32;4.90;;;2.42;;
75680;SDS011;64294;49.176;16.626;2023-01-10T13:37:03;4.22;;;2.22;;
75680;SDS011;64294;49.176;16.626;2023-01-10T13:39:43;6.38;;;2.08;;
75680;SDS011;64294;49.176;16.626;2023-01-10T13:42:26;5.13;;;2.30;;
75680;SDS011;64294;49.176;16.626;2023-01-10T13:45:16;4.55;;;2.03;;
75680;SDS011;64294;49.176;16.626;2023-01-10T13:52:46;4.95;;;1.88;;
75680;SDS011;64294;49.176;16.626;2023-01-10T13:55:31;4.13;;;1.83;;
75680;SDS011;64294;49.176;16.626;2023-01-10T14:04:22;4.20;;;1.80;;
75680;SDS011;64294;49.176;16.626;2023-01-10T14:06:58;5.28;;;1.90;;
75680;SDS011;64294;49.176;16.626;2023-01-10T14:09:40;3.83;;;2.10;;
75680;SDS011;64294;49.176;16.626;2023-01-10T14:12:16;6.95;;;2.05;;
75680;SDS011;64294;49.176;16.626;2023-01-10T14:14:53;4.55;;;2.20;;
75680;SDS011;64294;49.176;16.626;2023-01-10T14:17:26;7.00;;;2.00;;
75680;SDS011;64294;49.176;16.626;2023-01-10T14:20:02;9.00;;;2.30;;
75680;SDS011;64294;49.176;16.626;2023-01-10T14:22:33;6.60;;;1.92;;
75680;SDS011;64294;49.176;16.626;2023-01-10T14:25:04;3.10;;;2.05;;
75680;SDS011;64294;49.176;16.626;2023-01-10T14:27:43;4.00;;;1.90;;
75680;SDS011;64294;49.176;16.626;2023-01-10T14:32:50;5.93;;;2.10;;
75680;SDS011;64294;49.176;16.626;2023-01-10T14:35:18;3.95;;;1.83;;
75680;SDS011;64294;49.176;16.626;2023-01-10T14:37:50;7.25;;;2.20;;
75680;SDS011;64294;49.176;16.626;2023-01-10T14:43:00;2.28;;;1.40;;
75680;SDS011;64294;49.176;16.626;2023-01-10T14:48:31;5.07;;;2.25;;
75680;SDS011;64294;49.176;16.626;2023-01-10T14:53:42;5.65;;;1.80;;
75680;SDS011;64294;49.176;16.626;2023-01-10T14:56:21;4.35;;;1.92;;
75680;SDS011;64294;49.176;16.626;2023-01-10T14:58:52;2.90;;;1.90;;
75680;SDS011;64294;49.176;16.626;2023-01-10T15:01:20;5.32;;;2.20;;
75680;SDS011;64294;49.176;16.626;2023-01-10T15:03:47;6.78;;;2.00;;
75680;SDS011;64294;49.176;16.626;2023-01-10T15:06:13;7.38;;;2.40;;
75680;SDS011;64294;49.176;16.626;2023-01-10T15:08:39;4.93;;;2.38;;
75680;SDS011;64294;49.176;16.626;2023-01-10T15:11:05;5.80;;;2.25;;
75680;SDS011;64294;49.176;16.626;2023-01-10T15:13:35;5.78;;;2.60;;
75680;SDS011;64294;49.176;16.626;2023-01-10T15:16:10;6.85;;;2.80;;
75680;SDS011;64294;49.176;16.626;2023-01-10T15:18:43;6.25;;;2.63;;
75680;SDS011;64294;49.176;16.626;2023-01-10T15:21:11;4.25;;;2.38;;
75680;SDS011;64294;49.176;16.626;2023-01-10T15:23:38;5.55;;;2.95;;
75680;SDS011;64294;49.176;16.626;2023-01-10T15:26:06;6.05;;;3.00;;
75680;SDS011;64294;49.176;16.626;2023-01-10T15:28:37;6.88;;;2.63;;
75680;SDS011;64294;49.176;16.626;2023-01-10T15:31:03;6.80;;;3.00;;
75680;SDS011;64294;49.176;16.626;2023-01-10T15:33:31;6.00;;;2.90;;
75680;SDS011;64294;49.176;16.626;2023-01-10T15:36:12;9.50;;;3.03;;
75680;SDS011;64294;49.176;16.626;2023-01-10T15:38:44;7.55;;;3.30;;
75680;SDS011;64294;49.176;16.626;2023-01-10T15:41:18;5.28;;;3.00;;
75680;SDS011;64294;49.176;16.626;2023-01-10T15:43:45;6.72;;;2.90;;
75680;SDS011;64294;49.176;16.626;2023-01-10T15:46:21;22.77;;;9.10;;
75680;SDS011;64294;49.176;16.626;2023-01-10T15:51:32;6.72;;;3.15;;
75680;SDS011;64294;49.176;16.626;2023-01-10T15:54:00;6.93;;;3.08;;
75680;SDS011;64294;49.176;16.626;2023-01-10T15:56:40;7.93;;;3.35;;
75680;SDS011;64294;49.176;16.626;2023-01-10T16:01:57;5.72;;;2.97;;
75680;SDS011;64294;49.176;16.626;2023-01-10T16:04:39;7.30;;;3.22;;
75680;SDS011;64294;49.176;16.626;2023-01-10T16:07:11;6.70;;;3.30;;
75680;SDS011;64294;49.176;16.626;2023-01-10T16:09:46;6.28;;;3.15;;
75680;SDS011;64294;49.176;16.626;2023-01-10T16:12:27;6.55;;;3.35;;
75680;SDS011;64294;49.176;16.626;2023-01-10T16:15:21;6.57;;;3.10;;
75680;SDS011;64294;49.176;16.626;2023-01-10T16:17:48;10.65;;;3.30;;
75680;SDS011;64294;49.176;16.626;2023-01-10T16:20:14;6.22;;;3.17;;
75680;SDS011;64294;49.176;16.626;2023-01-10T16:22:45;6.93;;;2.72;;
75680;SDS011;64294;49.176;16.626;2023-01-10T16:25:15;9.10;;;3.53;;
75680;SDS011;64294;49.176;16.626;2023-01-10T16:27:44;5.32;;;3.30;;
75680;SDS011;64294;49.176;16.626;2023-01-10T16:30:21;6.30;;;3.35;;
75680;SDS011;64294;49.176;16.626;2023-01-10T16:32:51;8.57;;;3.67;;
75680;SDS011;64294;49.176;16.626;2023-01-10T16:35:17;9.02;;;4.10;;
75680;SDS011;64294;49.176;16.626;2023-01-10T16:37:44;6.43;;;3.53;;
75680;SDS011;64294;49.176;16.626;2023-01-10T16:40:21;9.98;;;4.32;;
75680;SDS011;64294;49.176;16.626;2023-01-10T16:42:50;9.30;;;3.88;;
75680;SDS011;64294;49.176;16.626;2023-01-10T16:45:33;6.97;;;3.72;;
75680;SDS011;64294;49.176;16.626;2023-01-10T16:47:59;9.88;;;3.55;;
75680;SDS011;64294;49.176;16.626;2023-01-10T16:50:25;6.20;;;2.67;;
75680;SDS011;64294;49.176;16.626;2023-01-10T16:52:50;4.05;;;2.47;;
75680;SDS011;64294;49.176;16.626;2023-01-10T16:55:17;3.97;;;2.28;;
75680;SDS011;64294;49.176;16.626;2023-01-10T16:57:45;3.95;;;2.42;;